sensor_id;sensor_type;location;lat;lon;timestamp;P1;durP1;ratioP1;P2;durP2;ratioP2
48327;SDS011;34136;51.022;7.082;2023-05-21T00:01:41;13.52;;;11.50;;
48327;SDS011;34136;51.022;7.082;2023-05-21T00:04:27;14.90;;;12.18;;
48327;SDS011;34136;51.022;7.082;2023-05-21T00:07:13;14.02;;;12.60;;
48327;SDS011;34136;51.022;7.082;2023-05-21T00:09:59;13.88;;;12.20;;
48327;SDS011;34136;51.022;7.082;2023-05-21T00:12:46;15.20;;;13.00;;
48327;SDS011;34136;51.022;7.082;2023-05-21T00:15:32;14.10;;;12.63;;
48327;SDS011;34136;51.022;7.082;2023-05-21T00:18:18;14.52;;;12.57;;
48327;SDS011;34136;51.022;7.082;2023-05-21T00:21:04;15.65;;;12.38;;
48327;SDS011;34136;51.022;7.082;2023-05-21T00:23:51;14.02;;;12.52;;
48327;SDS011;34136;51.022;7.082;2023-05-21T00:26:38;15.23;;;13.02;;
48327;SDS011;34136;51.022;7.082;2023-05-21T00:29:25;13.40;;;12.07;;
48327;SDS011;34136;51.022;7.082;2023-05-21T00:32:11;14.77;;;12.48;;
48327;SDS011;34136;51.022;7.082;2023-05-21T00:34:57;16.33;;;12.82;;
48327;SDS011;34136;51.022;7.082;2023-05-21T00:37:43;15.15;;;12.82;;
48327;SDS011;34136;51.022;7.082;2023-05-21T00:40:29;16.55;;;13.30;;
48327;SDS011;34136;51.022;7.082;2023-05-21T00:43:16;14.68;;;13.18;;
48327;SDS011;34136;51.022;7.082;2023-05-21T00:46:02;14.00;;;12.50;;
48327;SDS011;34136;51.022;7.082;2023-05-21T00:48:49;15.95;;;12.80;;
48327;SDS011;34136;51.022;7.082;2023-05-21T00:51:36;14.38;;;12.82;;
48327;SDS011;34136;51.022;7.082;2023-05-21T00:54:23;15.15;;;13.38;;
48327;SDS011;34136;51.022;7.082;2023-05-21T00:57:09;13.98;;;12.43;;
48327;SDS011;34136;51.022;7.082;2023-05-21T00:59:55;14.30;;;12.77;;
48327;SDS011;34136;51.022;7.082;2023-05-21T01:02:42;15.50;;;13.73;;
48327;SDS011;34136;51.022;7.082;2023-05-21T01:05:28;13.85;;;11.82;;
48327;SDS011;34136;51.022;7.082;2023-05-21T01:08:15;14.65;;;13.10;;
48327;SDS011;34136;51.022;7.082;2023-05-21T01:11:02;16.40;;;12.65;;
48327;SDS011;34136;51.022;7.082;2023-05-21T01:13:51;13.45;;;12.15;;
48327;SDS011;34136;51.022;7.082;2023-05-21T01:16:37;14.25;;;12.85;;
48327;SDS011;34136;51.022;7.082;2023-05-21T01:19:25;14.65;;;13.15;;
48327;SDS011;34136;51.022;7.082;2023-05-21T01:22:11;15.77;;;13.10;;
48327;SDS011;34136;51.022;7.082;2023-05-21T01:24:59;15.20;;;13.48;;
48327;SDS011;34136;51.022;7.082;2023-05-21T01:27:45;15.70;;;14.00;;
48327;SDS011;34136;51.022;7.082;2023-05-21T01:30:32;15.85;;;13.68;;
48327;SDS011;34136;51.022;7.082;2023-05-21T01:33:33;15.00;;;13.48;;
48327;SDS011;34136;51.022;7.082;2023-05-21T01:36:28;15.85;;;13.90;;
48327;SDS011;34136;51.022;7.082;2023-05-21T01:39:22;14.45;;;12.95;;
48327;SDS011;34136;51.022;7.082;2023-05-21T01:42:13;15.52;;;13.90;;
48327;SDS011;34136;51.022;7.082;2023-05-21T01:45:01;14.70;;;13.20;;
48327;SDS011;34136;51.022;7.082;2023-05-21T01:47:49;15.80;;;13.35;;
48327;SDS011;34136;51.022;7.082;2023-05-21T01:50:39;17.17;;;15.02;;
48327;SDS011;34136;51.022;7.082;2023-05-21T01:53:26;17.52;;;13.93;;
48327;SDS011;34136;51.022;7.082;2023-05-21T01:56:13;15.90;;;13.98;;
48327;SDS011;34136;51.022;7.082;2023-05-21T01:58:59;16.08;;;14.43;;
48327;SDS011;34136;51.022;7.082;2023-05-21T02:01:45;15.57;;;13.95;;
48327;SDS011;34136;51.022;7.082;2023-05-21T02:04:32;17.17;;;13.75;;
48327;SDS011;34136;51.022;7.082;2023-05-21T02:07:18;15.13;;;13.63;;
48327;SDS011;34136;51.022;7.082;2023-05-21T02:10:05;16.40;;;13.93;;
48327;SDS011;34136;51.022;7.082;2023-05-21T02:12:52;17.02;;;14.93;;
48327;SDS011;34136;51.022;7.082;2023-05-21T02:15:38;16.38;;;14.23;;
48327;SDS011;34136;51.022;7.082;2023-05-21T02:18:25;15.80;;;13.52;;
48327;SDS011;34136;51.022;7.082;2023-05-21T02:21:12;17.05;;;13.82;;
48327;SDS011;34136;51.022;7.082;2023-05-21T02:23:58;15.70;;;13.90;;
48327;SDS011;34136;51.022;7.082;2023-05-21T02:26:45;17.20;;;14.93;;
48327;SDS011;34136;51.022;7.082;2023-05-21T02:29:32;16.35;;;14.15;;
48327;SDS011;34136;51.022;7.082;2023-05-21T02:32:18;15.70;;;13.73;;
48327;SDS011;34136;51.022;7.082;2023-05-21T02:35:04;15.98;;;14.23;;
48327;SDS011;34136;51.022;7.082;2023-05-21T02:37:51;16.83;;;15.07;;
48327;SDS011;34136;51.022;7.082;2023-05-21T02:40:38;17.85;;;14.68;;
48327;SDS011;34136;51.022;7.082;2023-05-21T02:43:24;17.05;;;14.82;;
48327;SDS011;34136;51.022;7.082;2023-05-21T02:46:11;15.63;;;14.02;;
48327;SDS011;34136;51.022;7.082;2023-05-21T02:48:57;15.95;;;14.10;;
48327;SDS011;34136;51.022;7.082;2023-05-21T02:51:44;17.60;;;14.63;;
48327;SDS011;34136;51.022;7.082;2023-05-21T02:54:31;15.98;;;14.32;;
48327;SDS011;34136;51.022;7.082;2023-05-21T02:57:17;15.82;;;14.23;;
48327;SDS011;34136;51.022;7.082;2023-05-21T03:00:04;15.82;;;14.20;;
48327;SDS011;34136;51.022;7.082;2023-05-21T03:02:51;15.38;;;13.77;;
48327;SDS011;34136;51.022;7.082;2023-05-21T03:05:37;15.30;;;13.57;;
48327;SDS011;34136;51.022;7.082;2023-05-21T03:08:24;16.70;;;13.85;;
48327;SDS011;34136;51.022;7.082;2023-05-21T03:11:10;14.40;;;12.90;;
48327;SDS011;34136;51.022;7.082;2023-05-21T03:13:57;15.75;;;13.98;;
48327;SDS011;34136;51.022;7.082;2023-05-21T03:16:43;14.50;;;13.07;;
48327;SDS011;34136;51.022;7.082;2023-05-21T03:19:33;14.15;;;12.68;;
48327;SDS011;34136;51.022;7.082;2023-05-21T03:22:20;17.08;;;13.32;;
48327;SDS011;34136;51.022;7.082;2023-05-21T03:25:07;15.88;;;14.00;;
48327;SDS011;34136;51.022;7.082;2023-05-21T03:27:55;17.13;;;13.95;;
48327;SDS011;34136;51.022;7.082;2023-05-21T03:30:59;15.07;;;13.52;;
48327;SDS011;34136;51.022;7.082;2023-05-21T03:34:02;14.10;;;12.25;;
48327;SDS011;34136;51.022;7.082;2023-05-21T03:36:50;14.50;;;13.00;;
48327;SDS011;34136;51.022;7.082;2023-05-21T03:39:37;15.45;;;13.80;;
48327;SDS011;34136;51.022;7.082;2023-05-21T03:42:24;15.73;;;13.63;;
48327;SDS011;34136;51.022;7.082;2023-05-21T03:45:13;18.50;;;12.95;;
48327;SDS011;34136;51.022;7.082;2023-05-21T03:48:35;15.88;;;13.70;;
48327;SDS011;34136;51.022;7.082;2023-05-21T03:51:21;14.68;;;13.18;;
48327;SDS011;34136;51.022;7.082;2023-05-21T03:54:08;14.52;;;12.75;;
48327;SDS011;34136;51.022;7.082;2023-05-21T03:56:56;15.60;;;13.50;;
48327;SDS011;34136;51.022;7.082;2023-05-21T03:59:44;16.25;;;13.63;;
48327;SDS011;34136;51.022;7.082;2023-05-21T04:02:30;15.60;;;13.57;;
48327;SDS011;34136;51.022;7.082;2023-05-21T04:05:17;15.35;;;12.60;;
48327;SDS011;34136;51.022;7.082;2023-05-21T04:08:04;14.25;;;12.80;;
48327;SDS011;34136;51.022;7.082;2023-05-21T04:10:51;15.98;;;13.27;;
48327;SDS011;34136;51.022;7.082;2023-05-21T04:13:37;16.55;;;13.43;;
48327;SDS011;34136;51.022;7.082;2023-05-21T04:16:23;15.25;;;13.75;;
48327;SDS011;34136;51.022;7.082;2023-05-21T04:19:11;14.77;;;13.15;;
48327;SDS011;34136;51.022;7.082;2023-05-21T04:21:57;18.77;;;13.90;;
48327;SDS011;34136;51.022;7.082;2023-05-21T04:24:44;15.50;;;13.73;;
48327;SDS011;34136;51.022;7.082;2023-05-21T04:27:35;18.42;;;13.55;;
48327;SDS011;34136;51.022;7.082;2023-05-21T04:30:22;14.60;;;12.90;;
48327;SDS011;34136;51.022;7.082;2023-05-21T04:33:09;13.95;;;12.55;;
48327;SDS011;34136;51.022;7.082;2023-05-21T04:35:55;15.00;;;12.93;;
48327;SDS011;34136;51.022;7.082;2023-05-21T04:38:42;16.25;;;12.60;;
48327;SDS011;34136;51.022;7.082;2023-05-21T04:41:28;15.25;;;13.65;;
48327;SDS011;34136;51.022;7.082;2023-05-21T04:44:15;14.75;;;13.07;;
48327;SDS011;34136;51.022;7.082;2023-05-21T04:47:03;13.82;;;12.45;;
48327;SDS011;34136;51.022;7.082;2023-05-21T04:49:50;13.88;;;12.52;;
48327;SDS011;34136;51.022;7.082;2023-05-21T04:52:37;14.18;;;12.65;;
48327;SDS011;34136;51.022;7.082;2023-05-21T04:55:24;14.65;;;12.90;;
48327;SDS011;34136;51.022;7.082;2023-05-21T04:58:10;17.63;;;12.88;;
48327;SDS011;34136;51.022;7.082;2023-05-21T05:00:57;14.20;;;12.75;;
48327;SDS011;34136;51.022;7.082;2023-05-21T05:03:44;15.93;;;13.25;;
48327;SDS011;34136;51.022;7.082;2023-05-21T05:06:30;13.88;;;12.38;;
48327;SDS011;34136;51.022;7.082;2023-05-21T05:09:17;14.98;;;13.27;;
48327;SDS011;34136;51.022;7.082;2023-05-21T05:12:04;15.13;;;12.55;;
48327;SDS011;34136;51.022;7.082;2023-05-21T05:14:51;14.98;;;13.30;;
48327;SDS011;34136;51.022;7.082;2023-05-21T05:17:36;14.82;;;12.60;;
48327;SDS011;34136;51.022;7.082;2023-05-21T05:20:23;14.70;;;13.18;;
48327;SDS011;34136;51.022;7.082;2023-05-21T05:23:09;14.13;;;12.73;;
48327;SDS011;34136;51.022;7.082;2023-05-21T05:25:56;13.90;;;12.38;;
48327;SDS011;34136;51.022;7.082;2023-05-21T05:28:43;14.73;;;12.73;;
48327;SDS011;34136;51.022;7.082;2023-05-21T05:31:31;14.50;;;12.93;;
48327;SDS011;34136;51.022;7.082;2023-05-21T05:34:17;14.05;;;12.68;;
48327;SDS011;34136;51.022;7.082;2023-05-21T05:37:03;15.00;;;13.50;;
48327;SDS011;34136;51.022;7.082;2023-05-21T05:39:51;16.20;;;13.52;;
48327;SDS011;34136;51.022;7.082;2023-05-21T05:42:37;14.63;;;13.20;;
48327;SDS011;34136;51.022;7.082;2023-05-21T05:45:30;15.23;;;12.45;;
48327;SDS011;34136;51.022;7.082;2023-05-21T05:48:16;13.85;;;12.48;;
48327;SDS011;34136;51.022;7.082;2023-05-21T05:51:02;14.70;;;13.20;;
48327;SDS011;34136;51.022;7.082;2023-05-21T05:53:50;15.40;;;13.27;;
48327;SDS011;34136;51.022;7.082;2023-05-21T05:56:36;17.80;;;13.15;;
48327;SDS011;34136;51.022;7.082;2023-05-21T05:59:24;14.30;;;12.75;;
48327;SDS011;34136;51.022;7.082;2023-05-21T06:02:14;14.02;;;12.52;;
48327;SDS011;34136;51.022;7.082;2023-05-21T06:05:01;14.70;;;13.25;;
48327;SDS011;34136;51.022;7.082;2023-05-21T06:07:48;14.63;;;13.13;;
48327;SDS011;34136;51.022;7.082;2023-05-21T06:10:34;16.67;;;13.32;;
48327;SDS011;34136;51.022;7.082;2023-05-21T06:13:22;14.35;;;12.90;;
48327;SDS011;34136;51.022;7.082;2023-05-21T06:16:08;13.30;;;12.00;;
48327;SDS011;34136;51.022;7.082;2023-05-21T06:18:55;16.27;;;13.57;;
48327;SDS011;34136;51.022;7.082;2023-05-21T06:21:41;14.85;;;12.90;;
48327;SDS011;34136;51.022;7.082;2023-05-21T06:24:28;15.43;;;13.93;;
48327;SDS011;34136;51.022;7.082;2023-05-21T06:27:15;14.10;;;12.52;;
48327;SDS011;34136;51.022;7.082;2023-05-21T06:30:02;14.60;;;13.10;;
48327;SDS011;34136;51.022;7.082;2023-05-21T06:32:49;14.35;;;12.85;;
48327;SDS011;34136;51.022;7.082;2023-05-21T06:35:35;14.75;;;13.25;;
48327;SDS011;34136;51.022;7.082;2023-05-21T06:38:22;16.77;;;12.73;;
48327;SDS011;34136;51.022;7.082;2023-05-21T06:41:08;13.48;;;12.05;;
48327;SDS011;34136;51.022;7.082;2023-05-21T06:44:07;13.20;;;11.77;;
48327;SDS011;34136;51.022;7.082;2023-05-21T06:47:18;17.00;;;12.55;;
48327;SDS011;34136;51.022;7.082;2023-05-21T06:50:05;14.00;;;12.07;;
48327;SDS011;34136;51.022;7.082;2023-05-21T06:52:51;13.63;;;12.20;;
48327;SDS011;34136;51.022;7.082;2023-05-21T06:55:38;13.32;;;11.90;;
48327;SDS011;34136;51.022;7.082;2023-05-21T06:58:34;16.98;;;11.90;;
48327;SDS011;34136;51.022;7.082;2023-05-21T07:01:21;13.55;;;12.20;;
48327;SDS011;34136;51.022;7.082;2023-05-21T07:04:08;13.07;;;11.77;;
48327;SDS011;34136;51.022;7.082;2023-05-21T07:06:56;12.38;;;11.18;;
48327;SDS011;34136;51.022;7.082;2023-05-21T07:09:43;13.73;;;11.68;;
48327;SDS011;34136;51.022;7.082;2023-05-21T07:12:29;13.82;;;11.75;;
48327;SDS011;34136;51.022;7.082;2023-05-21T07:15:16;11.20;;;10.07;;
48327;SDS011;34136;51.022;7.082;2023-05-21T07:18:02;12.15;;;10.95;;
48327;SDS011;34136;51.022;7.082;2023-05-21T07:20:49;12.55;;;11.23;;
48327;SDS011;34136;51.022;7.082;2023-05-21T07:23:36;13.07;;;11.07;;
48327;SDS011;34136;51.022;7.082;2023-05-21T07:26:22;14.70;;;10.95;;
48327;SDS011;34136;51.022;7.082;2023-05-21T07:29:08;13.02;;;10.90;;
48327;SDS011;34136;51.022;7.082;2023-05-21T07:31:55;11.70;;;10.40;;
48327;SDS011;34136;51.022;7.082;2023-05-21T07:34:42;12.82;;;10.82;;
48327;SDS011;34136;51.022;7.082;2023-05-21T07:37:28;12.77;;;10.93;;
48327;SDS011;34136;51.022;7.082;2023-05-21T07:40:15;13.10;;;11.70;;
48327;SDS011;34136;51.022;7.082;2023-05-21T07:43:02;15.75;;;11.40;;
48327;SDS011;34136;51.022;7.082;2023-05-21T07:45:50;11.95;;;10.70;;
48327;SDS011;34136;51.022;7.082;2023-05-21T07:48:36;13.43;;;10.60;;
48327;SDS011;34136;51.022;7.082;2023-05-21T07:51:24;12.15;;;10.85;;
48327;SDS011;34136;51.022;7.082;2023-05-21T07:54:11;11.63;;;10.45;;
48327;SDS011;34136;51.022;7.082;2023-05-21T07:56:59;14.07;;;11.05;;
48327;SDS011;34136;51.022;7.082;2023-05-21T08:00:18;11.90;;;10.70;;
48327;SDS011;34136;51.022;7.082;2023-05-21T08:03:14;11.07;;;9.98;;
48327;SDS011;34136;51.022;7.082;2023-05-21T08:06:02;11.17;;;10.07;;
48327;SDS011;34136;51.022;7.082;2023-05-21T08:08:48;11.88;;;10.57;;
48327;SDS011;34136;51.022;7.082;2023-05-21T08:11:35;12.13;;;10.45;;
48327;SDS011;34136;51.022;7.082;2023-05-21T08:14:22;11.80;;;10.50;;
48327;SDS011;34136;51.022;7.082;2023-05-21T08:17:09;11.30;;;10.10;;
48327;SDS011;34136;51.022;7.082;2023-05-21T08:19:56;12.00;;;10.20;;
48327;SDS011;34136;51.022;7.082;2023-05-21T08:22:42;12.00;;;9.82;;
48327;SDS011;34136;51.022;7.082;2023-05-21T08:25:29;11.68;;;10.23;;
48327;SDS011;34136;51.022;7.082;2023-05-21T08:28:18;11.70;;;10.50;;
48327;SDS011;34136;51.022;7.082;2023-05-21T08:31:06;11.70;;;10.60;;
48327;SDS011;34136;51.022;7.082;2023-05-21T08:33:55;12.23;;;10.13;;
48327;SDS011;34136;51.022;7.082;2023-05-21T08:36:52;14.40;;;9.55;;
48327;SDS011;34136;51.022;7.082;2023-05-21T08:39:59;12.35;;;9.77;;
48327;SDS011;34136;51.022;7.082;2023-05-21T08:42:49;15.10;;;12.32;;
48327;SDS011;34136;51.022;7.082;2023-05-21T08:45:53;12.40;;;10.27;;
48327;SDS011;34136;51.022;7.082;2023-05-21T08:48:45;11.63;;;10.20;;
48327;SDS011;34136;51.022;7.082;2023-05-21T08:51:32;11.00;;;9.90;;
48327;SDS011;34136;51.022;7.082;2023-05-21T08:54:21;11.02;;;9.93;;
48327;SDS011;34136;51.022;7.082;2023-05-21T08:57:07;10.57;;;9.45;;
48327;SDS011;34136;51.022;7.082;2023-05-21T08:59:55;10.70;;;9.68;;
48327;SDS011;34136;51.022;7.082;2023-05-21T09:02:45;11.23;;;9.15;;
48327;SDS011;34136;51.022;7.082;2023-05-21T09:05:33;10.63;;;9.55;;
48327;SDS011;34136;51.022;7.082;2023-05-21T09:08:22;11.18;;;9.95;;
48327;SDS011;34136;51.022;7.082;2023-05-21T09:11:29;14.90;;;10.50;;
48327;SDS011;34136;51.022;7.082;2023-05-21T09:14:17;14.05;;;10.25;;
48327;SDS011;34136;51.022;7.082;2023-05-21T09:17:16;11.15;;;9.95;;
48327;SDS011;34136;51.022;7.082;2023-05-21T09:20:12;10.60;;;9.57;;
48327;SDS011;34136;51.022;7.082;2023-05-21T09:23:04;10.38;;;9.38;;
48327;SDS011;34136;51.022;7.082;2023-05-21T09:25:52;12.93;;;10.32;;
48327;SDS011;34136;51.022;7.082;2023-05-21T09:28:50;11.52;;;10.25;;
48327;SDS011;34136;51.022;7.082;2023-05-21T09:31:42;10.65;;;9.60;;
48327;SDS011;34136;51.022;7.082;2023-05-21T09:34:30;12.43;;;11.13;;
48327;SDS011;34136;51.022;7.082;2023-05-21T09:37:21;11.70;;;10.50;;
48327;SDS011;34136;51.022;7.082;2023-05-21T09:40:11;10.73;;;9.63;;
48327;SDS011;34136;51.022;7.082;2023-05-21T09:43:03;10.75;;;9.70;;
48327;SDS011;34136;51.022;7.082;2023-05-21T09:45:50;12.25;;;10.75;;
48327;SDS011;34136;51.022;7.082;2023-05-21T09:48:44;11.30;;;10.20;;
48327;SDS011;34136;51.022;7.082;2023-05-21T09:51:37;11.38;;;10.27;;
48327;SDS011;34136;51.022;7.082;2023-05-21T09:54:24;11.30;;;10.20;;
48327;SDS011;34136;51.022;7.082;2023-05-21T09:57:15;10.88;;;9.88;;
48327;SDS011;34136;51.022;7.082;2023-05-21T10:03:08;11.27;;;10.25;;
48327;SDS011;34136;51.022;7.082;2023-05-21T10:05:56;10.50;;;9.50;;
48327;SDS011;34136;51.022;7.082;2023-05-21T10:08:44;11.00;;;9.95;;
48327;SDS011;34136;51.022;7.082;2023-05-21T10:11:33;11.23;;;10.10;;
48327;SDS011;34136;51.022;7.082;2023-05-21T10:14:22;14.30;;;10.18;;
48327;SDS011;34136;51.022;7.082;2023-05-21T10:17:12;11.88;;;10.73;;
48327;SDS011;34136;51.022;7.082;2023-05-21T10:19:59;11.70;;;9.75;;
48327;SDS011;34136;51.022;7.082;2023-05-21T10:22:45;11.20;;;10.10;;
48327;SDS011;34136;51.022;7.082;2023-05-21T10:25:32;10.35;;;9.35;;
48327;SDS011;34136;51.022;7.082;2023-05-21T10:28:20;10.05;;;9.02;;
48327;SDS011;34136;51.022;7.082;2023-05-21T10:31:08;11.95;;;9.98;;
48327;SDS011;34136;51.022;7.082;2023-05-21T10:33:56;12.73;;;10.00;;
48327;SDS011;34136;51.022;7.082;2023-05-21T10:36:45;12.25;;;10.18;;
48327;SDS011;34136;51.022;7.082;2023-05-21T10:39:33;11.13;;;9.93;;
48327;SDS011;34136;51.022;7.082;2023-05-21T10:55:16;10.52;;;9.38;;
48327;SDS011;34136;51.022;7.082;2023-05-21T11:01:39;12.52;;;10.43;;
48327;SDS011;34136;51.022;7.082;2023-05-21T11:04:27;14.00;;;10.23;;
48327;SDS011;34136;51.022;7.082;2023-05-21T11:07:14;11.48;;;10.20;;
48327;SDS011;34136;51.022;7.082;2023-05-21T11:10:28;10.98;;;9.88;;
48327;SDS011;34136;51.022;7.082;2023-05-21T11:13:15;11.77;;;10.68;;
48327;SDS011;34136;51.022;7.082;2023-05-21T11:16:03;10.90;;;9.80;;
48327;SDS011;34136;51.022;7.082;2023-05-21T11:21:36;10.25;;;9.25;;
48327;SDS011;34136;51.022;7.082;2023-05-21T11:24:25;11.52;;;10.38;;
48327;SDS011;34136;51.022;7.082;2023-05-21T11:27:11;12.20;;;9.55;;
48327;SDS011;34136;51.022;7.082;2023-05-21T11:29:57;10.25;;;9.35;;
48327;SDS011;34136;51.022;7.082;2023-05-21T11:38:39;10.32;;;9.43;;
48327;SDS011;34136;51.022;7.082;2023-05-21T11:41:25;10.18;;;8.93;;
48327;SDS011;34136;51.022;7.082;2023-05-21T11:44:11;10.05;;;9.05;;
48327;SDS011;34136;51.022;7.082;2023-05-21T11:47:00;10.27;;;9.27;;
48327;SDS011;34136;51.022;7.082;2023-05-21T11:49:46;10.63;;;9.63;;
48327;SDS011;34136;51.022;7.082;2023-05-21T11:52:33;9.98;;;8.98;;
48327;SDS011;34136;51.022;7.082;2023-05-21T11:55:22;11.82;;;9.60;;
48327;SDS011;34136;51.022;7.082;2023-05-21T11:58:11;10.57;;;9.55;;
48327;SDS011;34136;51.022;7.082;2023-05-21T12:00:58;9.68;;;8.57;;
48327;SDS011;34136;51.022;7.082;2023-05-21T12:03:44;9.88;;;8.85;;
48327;SDS011;34136;51.022;7.082;2023-05-21T12:06:31;11.35;;;9.52;;
48327;SDS011;34136;51.022;7.082;2023-05-21T12:09:17;10.10;;;9.20;;
48327;SDS011;34136;51.022;7.082;2023-05-21T12:12:03;11.13;;;9.98;;
48327;SDS011;34136;51.022;7.082;2023-05-21T12:14:50;11.38;;;10.27;;
48327;SDS011;34136;51.022;7.082;2023-05-21T12:17:38;10.43;;;9.43;;
48327;SDS011;34136;51.022;7.082;2023-05-21T12:20:25;12.18;;;9.48;;
48327;SDS011;34136;51.022;7.082;2023-05-21T12:23:44;10.80;;;9.80;;
48327;SDS011;34136;51.022;7.082;2023-05-21T12:26:24;10.63;;;9.60;;
48327;SDS011;34136;51.022;7.082;2023-05-21T12:29:11;11.05;;;9.60;;
48327;SDS011;34136;51.022;7.082;2023-05-21T12:32:02;10.93;;;9.82;;
48327;SDS011;34136;51.022;7.082;2023-05-21T12:34:51;10.52;;;9.43;;
48327;SDS011;34136;51.022;7.082;2023-05-21T12:37:38;10.65;;;9.60;;
48327;SDS011;34136;51.022;7.082;2023-05-21T12:40:33;11.57;;;10.15;;
48327;SDS011;34136;51.022;7.082;2023-05-21T12:43:20;11.18;;;9.23;;
48327;SDS011;34136;51.022;7.082;2023-05-21T12:46:06;11.70;;;9.65;;
48327;SDS011;34136;51.022;7.082;2023-05-21T12:48:53;10.25;;;9.23;;
48327;SDS011;34136;51.022;7.082;2023-05-21T12:51:40;10.90;;;9.80;;
48327;SDS011;34136;51.022;7.082;2023-05-21T12:54:27;10.43;;;9.40;;
48327;SDS011;34136;51.022;7.082;2023-05-21T12:57:19;9.75;;;8.75;;
48327;SDS011;34136;51.022;7.082;2023-05-21T13:00:06;10.13;;;9.20;;
48327;SDS011;34136;51.022;7.082;2023-05-21T13:02:52;10.10;;;9.05;;
48327;SDS011;34136;51.022;7.082;2023-05-21T13:05:40;9.63;;;8.52;;
48327;SDS011;34136;51.022;7.082;2023-05-21T13:08:26;10.40;;;9.35;;
48327;SDS011;34136;51.022;7.082;2023-05-21T13:11:13;10.25;;;9.23;;
48327;SDS011;34136;51.022;7.082;2023-05-21T13:13:59;10.30;;;9.18;;
48327;SDS011;34136;51.022;7.082;2023-05-21T13:16:45;9.90;;;8.80;;
48327;SDS011;34136;51.022;7.082;2023-05-21T13:19:31;13.30;;;8.93;;
48327;SDS011;34136;51.022;7.082;2023-05-21T13:22:18;9.68;;;8.70;;
48327;SDS011;34136;51.022;7.082;2023-05-21T13:25:04;9.75;;;8.80;;
48327;SDS011;34136;51.022;7.082;2023-05-21T13:27:51;9.65;;;8.75;;
48327;SDS011;34136;51.022;7.082;2023-05-21T13:30:38;9.55;;;8.65;;
48327;SDS011;34136;51.022;7.082;2023-05-21T13:33:25;9.98;;;9.00;;
48327;SDS011;34136;51.022;7.082;2023-05-21T13:36:11;10.18;;;9.13;;
48327;SDS011;34136;51.022;7.082;2023-05-21T13:38:58;9.68;;;8.73;;
48327;SDS011;34136;51.022;7.082;2023-05-21T13:41:44;9.57;;;8.75;;
48327;SDS011;34136;51.022;7.082;2023-05-21T13:44:31;10.27;;;8.98;;
48327;SDS011;34136;51.022;7.082;2023-05-21T13:47:18;10.40;;;9.32;;
48327;SDS011;34136;51.022;7.082;2023-05-21T13:50:04;10.27;;;9.38;;
48327;SDS011;34136;51.022;7.082;2023-05-21T13:52:51;10.82;;;9.82;;
48327;SDS011;34136;51.022;7.082;2023-05-21T13:55:38;10.13;;;9.05;;
48327;SDS011;34136;51.022;7.082;2023-05-21T13:58:25;12.02;;;9.20;;
48327;SDS011;34136;51.022;7.082;2023-05-21T14:01:11;10.38;;;9.35;;
48327;SDS011;34136;51.022;7.082;2023-05-21T14:03:57;10.27;;;9.27;;
48327;SDS011;34136;51.022;7.082;2023-05-21T14:06:44;10.45;;;9.30;;
48327;SDS011;34136;51.022;7.082;2023-05-21T14:09:31;10.55;;;9.60;;
48327;SDS011;34136;51.022;7.082;2023-05-21T14:12:17;10.65;;;9.65;;
48327;SDS011;34136;51.022;7.082;2023-05-21T14:15:05;10.13;;;9.02;;
48327;SDS011;34136;51.022;7.082;2023-05-21T14:17:51;9.80;;;8.90;;
48327;SDS011;34136;51.022;7.082;2023-05-21T14:20:38;10.98;;;8.82;;
48327;SDS011;34136;51.022;7.082;2023-05-21T14:23:24;10.07;;;9.18;;
48327;SDS011;34136;51.022;7.082;2023-05-21T14:26:10;10.07;;;9.10;;
48327;SDS011;34136;51.022;7.082;2023-05-21T14:28:56;10.32;;;9.32;;
48327;SDS011;34136;51.022;7.082;2023-05-21T14:31:43;10.82;;;9.73;;
48327;SDS011;34136;51.022;7.082;2023-05-21T14:34:29;10.52;;;9.52;;
48327;SDS011;34136;51.022;7.082;2023-05-21T14:37:15;9.75;;;8.85;;
48327;SDS011;34136;51.022;7.082;2023-05-21T14:40:02;13.02;;;9.30;;
48327;SDS011;34136;51.022;7.082;2023-05-21T14:42:48;10.52;;;9.38;;
48327;SDS011;34136;51.022;7.082;2023-05-21T14:45:35;10.40;;;9.50;;
48327;SDS011;34136;51.022;7.082;2023-05-21T14:48:21;10.77;;;9.68;;
48327;SDS011;34136;51.022;7.082;2023-05-21T14:51:07;10.57;;;8.77;;
48327;SDS011;34136;51.022;7.082;2023-05-21T14:53:53;11.80;;;9.75;;
48327;SDS011;34136;51.022;7.082;2023-05-21T14:56:40;10.52;;;9.20;;
48327;SDS011;34136;51.022;7.082;2023-05-21T14:59:26;10.90;;;9.30;;
48327;SDS011;34136;51.022;7.082;2023-05-21T15:02:12;9.95;;;8.95;;
48327;SDS011;34136;51.022;7.082;2023-05-21T15:04:58;9.95;;;9.05;;
48327;SDS011;34136;51.022;7.082;2023-05-21T15:07:45;9.82;;;8.85;;
48327;SDS011;34136;51.022;7.082;2023-05-21T15:10:31;10.68;;;9.05;;
48327;SDS011;34136;51.022;7.082;2023-05-21T15:13:17;12.82;;;8.52;;
48327;SDS011;34136;51.022;7.082;2023-05-21T15:16:04;10.57;;;9.60;;
48327;SDS011;34136;51.022;7.082;2023-05-21T15:18:51;11.38;;;9.32;;
48327;SDS011;34136;51.022;7.082;2023-05-21T15:21:38;10.80;;;9.75;;
48327;SDS011;34136;51.022;7.082;2023-05-21T15:24:24;9.85;;;8.90;;
48327;SDS011;34136;51.022;7.082;2023-05-21T15:27:11;9.95;;;8.95;;
48327;SDS011;34136;51.022;7.082;2023-05-21T15:29:57;10.70;;;9.77;;
48327;SDS011;34136;51.022;7.082;2023-05-21T15:32:44;10.30;;;9.30;;
48327;SDS011;34136;51.022;7.082;2023-05-21T15:35:29;10.40;;;9.40;;
48327;SDS011;34136;51.022;7.082;2023-05-21T15:38:16;13.13;;;9.35;;
48327;SDS011;34136;51.022;7.082;2023-05-21T15:41:03;10.60;;;9.60;;
48327;SDS011;34136;51.022;7.082;2023-05-21T15:43:50;9.82;;;8.88;;
48327;SDS011;34136;51.022;7.082;2023-05-21T15:46:36;10.82;;;9.80;;
48327;SDS011;34136;51.022;7.082;2023-05-21T15:49:23;10.63;;;9.60;;
48327;SDS011;34136;51.022;7.082;2023-05-21T15:52:09;10.48;;;9.40;;
48327;SDS011;34136;51.022;7.082;2023-05-21T15:54:55;10.50;;;9.45;;
48327;SDS011;34136;51.022;7.082;2023-05-21T15:57:42;10.82;;;9.73;;
48327;SDS011;34136;51.022;7.082;2023-05-21T16:00:29;10.95;;;9.95;;
48327;SDS011;34136;51.022;7.082;2023-05-21T16:03:15;11.48;;;9.60;;
48327;SDS011;34136;51.022;7.082;2023-05-21T16:06:01;11.13;;;10.13;;
48327;SDS011;34136;51.022;7.082;2023-05-21T16:08:47;10.98;;;9.80;;
48327;SDS011;34136;51.022;7.082;2023-05-21T16:11:34;11.80;;;10.70;;
48327;SDS011;34136;51.022;7.082;2023-05-21T16:14:20;11.93;;;10.82;;
48327;SDS011;34136;51.022;7.082;2023-05-21T16:17:06;11.10;;;10.00;;
48327;SDS011;34136;51.022;7.082;2023-05-21T16:19:53;11.68;;;10.23;;
48327;SDS011;34136;51.022;7.082;2023-05-21T16:22:39;12.70;;;10.68;;
48327;SDS011;34136;51.022;7.082;2023-05-21T16:25:25;11.05;;;9.95;;
48327;SDS011;34136;51.022;7.082;2023-05-21T16:28:27;11.50;;;10.35;;
48327;SDS011;34136;51.022;7.082;2023-05-21T16:31:25;11.65;;;10.50;;
48327;SDS011;34136;51.022;7.082;2023-05-21T16:34:54;12.38;;;10.77;;
48327;SDS011;34136;51.022;7.082;2023-05-21T16:37:44;11.52;;;10.40;;
48327;SDS011;34136;51.022;7.082;2023-05-21T16:40:31;12.45;;;11.30;;
48327;SDS011;34136;51.022;7.082;2023-05-21T16:43:18;11.90;;;10.85;;
48327;SDS011;34136;51.022;7.082;2023-05-21T16:46:08;12.98;;;10.98;;
48327;SDS011;34136;51.022;7.082;2023-05-21T16:49:01;12.82;;;11.70;;
48327;SDS011;34136;51.022;7.082;2023-05-21T16:52:06;12.73;;;10.95;;
48327;SDS011;34136;51.022;7.082;2023-05-21T16:54:52;12.02;;;11.02;;
48327;SDS011;34136;51.022;7.082;2023-05-21T16:57:38;12.65;;;11.45;;